Time;durP1;ratioP1;P1;durP2;ratioP2;P2;SDS_P1;SDS_P2;PMS_P1;PMS_P2;Temp;Humidity;BMP_temperature;BMP_pressure;BME280_temperature;BME280_humidity;BME280_pressure;Samples;Min_cycle;Max_cycle;Signal;HPM_P1;HPM_P2
2024/01/02 00:00:15;;;;;;;0.30;0.30;;;5.10;98.60;;;;;;2046074;28;20184;-65
2024/01/02 00:01:16;;;;;;;0.47;0.47;;;5.10;98.90;;;;;;2046647;28;20650;-66
2024/01/02 00:02:17;;;;;;;0.70;0.50;;;5.20;98.90;;;;;;2046559;28;20202;-65
2024/01/02 00:03:17;;;;;;;1.23;0.63;;;5.10;98.70;;;;;;2046631;28;20751;-65
2024/01/02 00:04:18;;;;;;;0.60;0.30;;;5.20;98.80;;;;;;2046027;28;20560;-65
2024/01/02 00:05:19;;;;;;;0.40;0.40;;;5.20;98.60;;;;;;2037877;29;20725;-66
2024/01/02 00:06:20;;;;;;;0.95;0.30;;;5.20;98.60;;;;;;2037246;29;20188;-66
2024/01/02 00:07:20;;;;;;;0.30;0.30;;;5.30;98.60;;;;;;2045083;28;20834;-65
2024/01/02 00:08:21;;;;;;;0.53;0.53;;;5.20;98.50;;;;;;2044970;28;20254;-66
2024/01/02 00:09:22;;;;;;;0.43;0.43;;;5.20;99.00;;;;;;2045452;28;20316;-66
2024/01/02 00:10:22;;;;;;;0.83;0.60;;;5.30;98.70;;;;;;2044606;28;20231;-66
2024/01/02 00:11:23;;;;;;;1.43;0.40;;;5.40;98.50;;;;;;2036487;29;20314;-66
2024/01/02 00:12:24;;;;;;;0.87;0.80;;;5.30;98.50;;;;;;2043952;28;20322;-65
2024/01/02 00:13:24;;;;;;;1.00;0.30;;;5.40;98.40;;;;;;2045312;28;20239;-66
2024/01/02 00:14:28;;;;;;;0.30;0.30;;;5.30;98.40;;;;;;2038850;29;20246;-66
2024/01/02 00:15:28;;;;;;;0.38;0.38;;;5.30;98.50;;;;;;2043888;28;20659;-66
2024/01/02 00:16:29;;;;;;;0.50;0.50;;;5.20;98.60;;;;;;2044014;28;20236;-66
2024/01/02 00:17:30;;;;;;;0.60;0.30;;;5.20;98.80;;;;;;2047505;28;20259;-67
2024/01/02 00:18:30;;;;;;;1.03;0.40;;;5.20;98.80;;;;;;2043866;28;20271;-67
2024/01/02 00:19:31;;;;;;;0.30;0.30;;;5.20;98.80;;;;;;2043911;28;20334;-67
2024/01/02 00:20:32;;;;;;;0.30;0.30;;;5.30;98.40;;;;;;2042812;28;20289;-67
2024/01/02 00:21:32;;;;;;;0.27;0.27;;;5.20;98.50;;;;;;2043841;28;20266;-67
2024/01/02 00:22:33;;;;;;;0.30;0.30;;;5.30;98.30;;;;;;2047104;28;20251;-67
2024/01/02 00:23:34;;;;;;;1.10;0.40;;;5.30;98.20;;;;;;2047235;28;20779;-67
2024/01/02 00:24:35;;;;;;;0.87;0.30;;;5.20;98.50;;;;;;2046746;28;20231;-66
2024/01/02 00:25:35;;;;;;;0.30;0.30;;;5.20;98.70;;;;;;2046744;28;20332;-66
2024/01/02 00:26:36;;;;;;;0.50;0.40;;;5.20;98.50;;;;;;2039371;28;20715;-67
2024/01/02 00:27:37;;;;;;;1.27;0.43;;;5.20;98.50;;;;;;2046027;28;20263;-67
2024/01/02 00:28:37;;;;;;;0.47;0.33;;;5.20;98.50;;;;;;2046479;28;20239;-67
2024/01/02 00:29:38;;;;;;;0.50;0.40;;;5.20;98.50;;;;;;2046280;28;20672;-66
2024/01/02 00:30:40;;;;;;;0.30;0.30;;;5.20;98.30;;;;;;2045625;28;20294;-66
2024/01/02 00:31:44;;;;;;;0.90;0.32;;;5.20;98.20;;;;;;2045294;28;20242;-67
2024/01/02 00:32:45;;;;;;;0.30;0.30;;;5.20;98.10;;;;;;2044924;28;20657;-66
2024/01/02 00:33:45;;;;;;;0.70;0.37;;;5.20;98.20;;;;;;2045192;28;20259;-67
2024/01/02 00:34:46;;;;;;;0.20;0.20;;;5.20;98.30;;;;;;2045368;28;20601;-66
2024/01/02 00:35:47;;;;;;;0.30;0.30;;;5.20;98.30;;;;;;2045480;28;20701;-66
2024/01/02 00:36:47;;;;;;;0.40;0.40;;;5.20;98.30;;;;;;2044891;28;20231;-67
2024/01/02 00:37:48;;;;;;;2.10;0.40;;;5.30;98.10;;;;;;2044597;28;20227;-66
2024/01/02 00:38:49;;;;;;;0.33;0.30;;;5.20;98.00;;;;;;2045086;28;20231;-66
2024/01/02 00:39:49;;;;;;;0.30;0.30;;;5.20;98.00;;;;;;2043832;28;20243;-67
2024/01/02 00:40:52;;;;;;;0.30;0.30;;;5.20;98.30;;;;;;2043453;28;20835;-66
2024/01/02 00:41:53;;;;;;;1.27;0.40;;;5.20;98.20;;;;;;2043368;28;20239;-66
2024/01/02 00:42:53;;;;;;;0.30;0.30;;;5.20;98.70;;;;;;2035994;28;20233;-67
2024/01/02 00:43:54;;;;;;;0.63;0.30;;;5.20;98.30;;;;;;2035348;28;20830;-66
2024/01/02 00:44:55;;;;;;;1.07;0.70;;;5.20;98.30;;;;;;2038217;28;20228;-66
2024/01/02 00:45:56;;;;;;;0.70;0.30;;;5.20;98.20;;;;;;2043241;28;20236;-67
2024/01/02 00:46:57;;;;;;;0.40;0.40;;;5.20;98.40;;;;;;2043455;28;20291;-66
2024/01/02 00:47:57;;;;;;;2.13;0.30;;;5.20;98.30;;;;;;2046387;28;20626;-66
2024/01/02 00:48:58;;;;;;;1.10;0.30;;;5.20;98.30;;;;;;2042787;28;20224;-66
2024/01/02 00:49:59;;;;;;;0.73;0.40;;;5.30;98.00;;;;;;2046909;28;20232;-67
2024/01/02 00:51:01;;;;;;;0.47;0.30;;;5.20;98.00;;;;;;2038120;29;20245;-67
2024/01/02 00:52:02;;;;;;;1.63;0.38;;;5.30;98.10;;;;;;2021705;29;20233;-67
2024/01/02 00:53:05;;;;;;;0.37;0.30;;;5.20;97.90;;;;;;2032006;29;20196;-66
2024/01/02 00:54:05;;;;;;;0.85;0.40;;;5.20;97.90;;;;;;2045951;28;20473;-66
2024/01/02 00:55:07;;;;;;;0.43;0.40;;;5.20;97.90;;;;;;2045130;28;20286;-66
2024/01/02 00:56:08;;;;;;;0.82;0.47;;;5.20;97.80;;;;;;2037112;29;20207;-66
2024/01/02 00:57:08;;;;;;;0.47;0.40;;;5.20;97.70;;;;;;2038619;29;20857;-67
2024/01/02 00:58:09;;;;;;;0.43;0.43;;;5.20;97.90;;;;;;2046697;28;20271;-67
2024/01/02 00:59:13;;;;;;;0.30;0.30;;;5.30;97.90;;;;;;2045475;28;20184;-67
2024/01/02 01:00:14;;;;;;;0.30;0.30;;;5.20;98.00;;;;;;2034789;28;20220;-67
2024/01/02 01:01:17;;;;;;;0.45;0.45;;;5.20;97.70;;;;;;2030972;29;20701;-67
2024/01/02 01:02:18;;;;;;;0.60;0.30;;;5.30;97.90;;;;;;2035759;29;20189;-67
2024/01/02 01:03:19;;;;;;;0.40;0.40;;;5.20;97.80;;;;;;2044315;28;20262;-67
2024/01/02 01:04:20;;;;;;;0.37;0.27;;;5.30;97.70;;;;;;2044451;28;20270;-67
2024/01/02 01:05:20;;;;;;;1.10;0.30;;;5.30;97.80;;;;;;2050736;28;21639;-66
2024/01/02 01:06:21;;;;;;;0.53;0.40;;;5.40;97.70;;;;;;2045204;28;20244;-67
2024/01/02 01:07:22;;;;;;;0.40;0.40;;;5.30;97.60;;;;;;2046562;28;20738;-67
2024/01/02 01:08:23;;;;;;;0.20;0.20;;;5.40;97.70;;;;;;2035395;29;20705;-66
2024/01/02 01:09:24;;;;;;;0.43;0.43;;;5.30;97.80;;;;;;2035878;29;20911;-66
2024/01/02 01:10:25;;;;;;;0.83;0.40;;;5.30;98.20;;;;;;2043630;28;20238;-67
2024/01/02 01:11:25;;;;;;;0.40;0.40;;;5.30;98.30;;;;;;2050715;28;20222;-66
2024/01/02 01:12:26;;;;;;;0.30;0.30;;;5.40;98.70;;;;;;2050154;28;20237;-67
2024/01/02 01:13:27;;;;;;;0.43;0.37;;;5.30;98.70;;;;;;2043047;28;20339;-66
2024/01/02 01:14:27;;;;;;;0.57;0.50;;;5.30;98.60;;;;;;2046376;28;20254;-66
2024/01/02 01:15:28;;;;;;;0.43;0.43;;;5.20;99.20;;;;;;2046198;28;20322;-67
2024/01/02 01:16:29;;;;;;;1.10;0.43;;;5.20;99.40;;;;;;2046724;28;20229;-66
2024/01/02 01:17:29;;;;;;;0.30;0.30;;;5.10;99.90;;;;;;2046445;28;20587;-67
2024/01/02 01:18:30;;;;;;;0.30;0.30;;;5.10;99.90;;;;;;2044874;28;20227;-66
2024/01/02 01:19:31;;;;;;;0.40;0.40;;;5.10;99.90;;;;;;2046081;28;20227;-67
2024/01/02 01:20:32;;;;;;;0.30;0.30;;;5.00;99.90;;;;;;2045092;28;20239;-67
2024/01/02 01:21:33;;;;;;;0.30;0.30;;;5.00;99.90;;;;;;2045189;28;20255;-66
2024/01/02 01:22:33;;;;;;;1.57;0.30;;;5.00;99.90;;;;;;2045860;28;20227;-66
2024/01/02 01:23:34;;;;;;;0.47;0.43;;;5.00;99.90;;;;;;2044859;28;20264;-67
2024/01/02 01:24:35;;;;;;;0.47;0.40;;;5.00;99.90;;;;;;2052642;28;20242;-67
2024/01/02 01:25:36;;;;;;;0.30;0.30;;;5.00;99.90;;;;;;2052392;28;20296;-67
2024/01/02 01:26:36;;;;;;;0.93;0.33;;;5.00;99.90;;;;;;2044320;28;20273;-66
2024/01/02 01:27:37;;;;;;;0.60;0.43;;;5.00;99.90;;;;;;2036337;29;20227;-67
2024/01/02 01:28:38;;;;;;;0.40;0.40;;;5.00;99.90;;;;;;2043930;28;20320;-66
2024/01/02 01:29:38;;;;;;;0.50;0.30;;;5.00;99.90;;;;;;2044448;28;20301;-67
2024/01/02 01:30:39;;;;;;;0.70;0.50;;;5.10;99.90;;;;;;2044290;28;20326;-67
2024/01/02 01:31:40;;;;;;;0.63;0.40;;;5.10;99.90;;;;;;2044588;28;20312;-67
2024/01/02 01:32:40;;;;;;;0.37;0.37;;;5.00;99.90;;;;;;2042914;28;20243;-67
2024/01/02 01:33:41;;;;;;;0.37;0.37;;;4.90;99.90;;;;;;2043104;28;20243;-66
2024/01/02 01:34:42;;;;;;;0.83;0.20;;;4.90;99.90;;;;;;2044204;28;20507;-67
2024/01/02 01:35:42;;;;;;;0.53;0.40;;;4.80;99.90;;;;;;2042781;28;20310;-67
2024/01/02 01:36:43;;;;;;;0.40;0.40;;;4.80;99.90;;;;;;2034922;28;20230;-68
2024/01/02 01:37:44;;;;;;;0.20;0.20;;;4.70;99.90;;;;;;2034679;28;20238;-67
2024/01/02 01:38:44;;;;;;;0.30;0.30;;;4.70;99.90;;;;;;2042450;28;20609;-68
2024/01/02 01:39:45;;;;;;;1.40;0.40;;;4.70;99.90;;;;;;2045389;28;20234;-68
2024/01/02 01:40:46;;;;;;;0.30;0.30;;;4.60;99.90;;;;;;2046690;28;20764;-68
2024/01/02 01:41:46;;;;;;;1.10;0.63;;;4.60;99.90;;;;;;2046101;28;20231;-68
2024/01/02 01:42:47;;;;;;;0.33;0.30;;;4.60;99.90;;;;;;2046177;28;20227;-68
2024/01/02 01:43:48;;;;;;;0.97;0.50;;;4.60;99.90;;;;;;2045450;28;20632;-68
2024/01/02 01:44:48;;;;;;;0.57;0.57;;;4.50;99.90;;;;;;2037471;28;20265;-68
2024/01/02 01:45:49;;;;;;;0.63;0.40;;;4.50;99.90;;;;;;2037420;28;20232;-68
2024/01/02 01:46:51;;;;;;;0.37;0.37;;;4.50;99.90;;;;;;2045005;28;20739;-68
2024/01/02 01:47:52;;;;;;;0.20;0.20;;;4.60;99.90;;;;;;2045329;28;20264;-66
2024/01/02 01:48:52;;;;;;;0.30;0.30;;;4.70;99.90;;;;;;2044742;28;20257;-66
2024/01/02 01:49:53;;;;;;;0.30;0.30;;;4.60;99.90;;;;;;2044625;28;20242;-67
2024/01/02 01:50:55;;;;;;;0.40;0.40;;;4.60;99.90;;;;;;2044992;28;20291;-68
2024/01/02 01:51:57;;;;;;;0.30;0.30;;;4.60;99.90;;;;;;2044774;28;20249;-67
2024/01/02 01:53:00;;;;;;;0.50;0.40;;;4.60;99.90;;;;;;2043566;28;20227;-68
2024/01/02 01:54:03;;;;;;;0.40;0.30;;;4.60;99.90;;;;;;2040761;28;20235;-67
2024/01/02 01:55:06;;;;;;;0.40;0.40;;;4.60;99.90;;;;;;2046701;28;20192;-68
2024/01/02 01:56:07;;;;;;;0.70;0.30;;;4.60;99.90;;;;;;2046709;28;20187;-68
2024/01/02 01:57:09;;;;;;;0.43;0.30;;;4.60;99.90;;;;;;2042527;28;20179;-67
2024/01/02 01:58:12;;;;;;;0.30;0.30;;;4.50;99.90;;;;;;2044458;28;20190;-68
2024/01/02 01:59:14;;;;;;;0.32;0.30;;;4.50;99.90;;;;;;2035604;29;20190;-68
2024/01/02 02:00:14;;;;;;;0.52;0.40;;;4.50;99.90;;;;;;2027710;29;20182;-66
2024/01/02 02:01:16;;;;;;;0.30;0.30;;;4.60;99.90;;;;;;2042024;28;20207;-66
2024/01/02 02:02:17;;;;;;;0.30;0.30;;;4.60;99.90;;;;;;2042040;28;20175;-66
2024/01/02 02:03:19;;;;;;;0.30;0.30;;;4.70;99.90;;;;;;2033862;28;20245;-66
2024/01/02 02:04:21;;;;;;;0.32;0.32;;;4.70;99.90;;;;;;2034820;28;20264;-66
2024/01/02 02:05:28;;;;;;;0.43;0.43;;;4.70;99.90;;;;;;2042596;28;20293;-66
2024/01/02 02:06:28;;;;;;;0.20;0.20;;;4.80;99.90;;;;;;2043418;28;20231;-66
2024/01/02 02:07:30;;;;;;;0.57;0.30;;;4.70;99.90;;;;;;2047527;28;20233;-66
2024/01/02 02:08:31;;;;;;;0.30;0.30;;;4.70;99.90;;;;;;2046901;28;20232;-66
2024/01/02 02:09:31;;;;;;;0.30;0.30;;;4.70;99.90;;;;;;2046577;28;20785;-66
2024/01/02 02:10:32;;;;;;;0.20;0.20;;;4.70;99.90;;;;;;2046313;28;20253;-66
2024/01/02 02:11:34;;;;;;;0.20;0.20;;;4.70;99.90;;;;;;2038390;29;20318;-67
2024/01/02 02:12:36;;;;;;;0.40;0.40;;;4.70;99.90;;;;;;2037244;28;20581;-66
2024/01/02 02:13:37;;;;;;;0.30;0.30;;;4.70;99.90;;;;;;2045666;28;20244;-66
2024/01/02 02:14:37;;;;;;;0.40;0.40;;;4.70;99.90;;;;;;2038180;28;20237;-66
2024/01/02 02:15:40;;;;;;;0.37;0.37;;;4.80;99.90;;;;;;2045416;28;20314;-66
2024/01/02 02:16:42;;;;;;;0.30;0.30;;;4.80;99.90;;;;;;2045595;28;20274;-66
2024/01/02 02:17:43;;;;;;;0.20;0.20;;;4.70;99.90;;;;;;2046025;28;20296;-66
2024/01/02 02:18:44;;;;;;;0.20;0.20;;;4.70;99.90;;;;;;2045063;28;20282;-66
2024/01/02 02:19:44;;;;;;;0.30;0.30;;;4.80;99.90;;;;;;2044799;28;20330;-66
2024/01/02 02:20:45;;;;;;;0.33;0.33;;;4.80;99.90;;;;;;2044953;28;20844;-67
2024/01/02 02:21:47;;;;;;;1.07;0.23;;;4.80;99.90;;;;;;2036613;28;20259;-66
2024/01/02 02:22:50;;;;;;;0.75;0.40;;;4.70;99.90;;;;;;2035886;28;20231;-67
2024/01/02 02:23:50;;;;;;;0.30;0.30;;;4.80;99.90;;;;;;2036264;28;20232;-66
2024/01/02 02:24:51;;;;;;;0.40;0.40;;;4.80;99.90;;;;;;2037610;29;20725;-67
2024/01/02 02:25:51;;;;;;;0.33;0.30;;;4.80;99.90;;;;;;2044444;28;20833;-66
2024/01/02 02:26:55;;;;;;;0.63;0.30;;;4.80;99.90;;;;;;2043795;28;20242;-66
2024/01/02 02:27:55;;;;;;;0.40;0.30;;;4.80;99.90;;;;;;2036107;28;20237;-66
2024/01/02 02:28:56;;;;;;;0.33;0.30;;;4.80;99.90;;;;;;2038837;29;20306;-66
2024/01/02 02:29:57;;;;;;;0.33;0.27;;;4.70;99.90;;;;;;2043818;28;20693;-66
2024/01/02 02:30:57;;;;;;;0.30;0.30;;;4.70;99.90;;;;;;2046868;28;20231;-66
2024/01/02 02:31:58;;;;;;;1.50;0.30;;;4.80;99.90;;;;;;2046028;28;20267;-67
2024/01/02 02:32:59;;;;;;;0.43;0.40;;;4.80;99.90;;;;;;2046377;28;20240;-66
2024/01/02 02:34:00;;;;;;;0.37;0.23;;;4.80;99.90;;;;;;2043779;28;20232;-67
2024/01/02 02:35:00;;;;;;;0.40;0.40;;;4.80;99.90;;;;;;2046950;28;20223;-67
2024/01/02 02:36:03;;;;;;;0.20;0.20;;;4.80;99.90;;;;;;2044507;28;21040;-67
2024/01/02 02:37:04;;;;;;;0.35;0.35;;;4.80;99.90;;;;;;2046047;28;20191;-67
2024/01/02 02:38:04;;;;;;;0.30;0.30;;;4.80;99.90;;;;;;2053596;28;20187;-67
2024/01/02 02:39:05;;;;;;;0.20;0.20;;;4.80;99.90;;;;;;2053782;28;20191;-67
2024/01/02 02:40:07;;;;;;;0.20;0.20;;;4.80;99.90;;;;;;2053578;28;20183;-67
2024/01/02 02:41:07;;;;;;;0.20;0.20;;;4.80;99.90;;;;;;2046264;28;20204;-67
2024/01/02 02:42:08;;;;;;;0.30;0.30;;;4.80;99.90;;;;;;2046882;28;20191;-67
2024/01/02 02:43:09;;;;;;;0.30;0.30;;;4.70;99.90;;;;;;2036671;29;20193;-67
2024/01/02 02:44:10;;;;;;;0.30;0.30;;;4.70;99.90;;;;;;2040746;28;20662;-67
2024/01/02 02:45:10;;;;;;;0.40;0.40;;;4.60;99.90;;;;;;2046327;28;20192;-72
2024/01/02 02:46:11;;;;;;;0.30;0.30;;;4.60;99.90;;;;;;2044176;28;20196;-67
2024/01/02 02:47:12;;;;;;;0.30;0.30;;;4.60;99.90;;;;;;2036641;28;20181;-67
2024/01/02 02:48:12;;;;;;;0.23;0.23;;;4.60;99.90;;;;;;2042887;28;20207;-67
2024/01/02 02:49:13;;;;;;;0.30;0.30;;;4.60;99.90;;;;;;2043646;28;20258;-67
2024/01/02 02:50:14;;;;;;;0.23;0.23;;;4.60;99.90;;;;;;2044057;28;20275;-66
2024/01/02 02:51:14;;;;;;;0.30;0.30;;;4.50;99.90;;;;;;2045358;28;20194;-67
2024/01/02 02:52:16;;;;;;;0.30;0.30;;;4.50;99.90;;;;;;2044218;28;20185;-67
2024/01/02 02:53:17;;;;;;;0.52;0.30;;;4.50;99.90;;;;;;2042853;28;20277;-67
2024/01/02 02:54:17;;;;;;;0.47;0.30;;;4.50;99.90;;;;;;2047142;28;20696;-67
2024/01/02 02:55:18;;;;;;;0.30;0.30;;;4.60;99.90;;;;;;2042877;28;20432;-67
2024/01/02 02:56:19;;;;;;;0.30;0.30;;;4.60;99.90;;;;;;2034695;29;20202;-67
2024/01/02 02:57:19;;;;;;;0.30;0.30;;;4.60;99.90;;;;;;2047394;28;21601;-67
2024/01/02 02:58:20;;;;;;;0.30;0.30;;;4.60;99.90;;;;;;2046348;28;20189;-67
2024/01/02 02:59:21;;;;;;;1.70;0.30;;;4.60;99.90;;;;;;2046885;28;20231;-67
2024/01/02 03:00:22;;;;;;;0.40;0.40;;;4.50;99.90;;;;;;2046656;28;20470;-67
2024/01/02 03:01:23;;;;;;;0.20;0.20;;;4.50;99.90;;;;;;2045431;28;20233;-67
2024/01/02 03:02:24;;;;;;;0.28;0.28;;;4.50;99.90;;;;;;2042894;28;20251;-67
2024/01/02 03:03:25;;;;;;;0.40;0.40;;;4.50;99.90;;;;;;2046516;28;20293;-67
2024/01/02 03:04:25;;;;;;;0.30;0.30;;;4.40;99.90;;;;;;2044693;28;20233;-67
2024/01/02 03:05:26;;;;;;;0.20;0.20;;;4.40;99.90;;;;;;2044844;28;20282;-67
2024/01/02 03:06:27;;;;;;;0.20;0.20;;;4.40;99.90;;;;;;2044609;28;20383;-67
2024/01/02 03:07:28;;;;;;;0.40;0.30;;;4.40;99.90;;;;;;2045288;28;20323;-67
2024/01/02 03:08:29;;;;;;;0.25;0.25;;;4.40;99.90;;;;;;2044405;28;20241;-67
2024/01/02 03:09:30;;;;;;;0.50;0.50;;;4.50;99.90;;;;;;2036188;28;20235;-67
2024/01/02 03:10:30;;;;;;;0.30;0.30;;;4.50;99.90;;;;;;2043409;28;20282;-66
2024/01/02 03:11:31;;;;;;;0.43;0.43;;;4.40;99.90;;;;;;2044941;28;21454;-68
2024/01/02 03:12:32;;;;;;;0.30;0.30;;;4.40;99.90;;;;;;2043312;28;20323;-67
2024/01/02 03:13:32;;;;;;;0.57;0.57;;;4.40;99.90;;;;;;2043875;28;20235;-67
2024/01/02 03:14:33;;;;;;;0.20;0.20;;;4.40;99.90;;;;;;2043575;28;20323;-67
2024/01/02 03:15:34;;;;;;;0.67;0.40;;;4.50;99.90;;;;;;2035446;29;20233;-67
2024/01/02 03:16:34;;;;;;;0.50;0.23;;;4.40;99.90;;;;;;2044576;28;20238;-67
2024/01/02 03:17:35;;;;;;;0.20;0.20;;;4.40;99.90;;;;;;2043238;28;20231;-67
2024/01/02 03:18:36;;;;;;;0.20;0.20;;;4.40;99.90;;;;;;2042645;28;20228;-67
2024/01/02 03:19:37;;;;;;;0.30;0.30;;;4.40;99.90;;;;;;2042554;28;20970;-67
2024/01/02 03:20:37;;;;;;;0.40;0.30;;;4.40;99.90;;;;;;2042180;28;20342;-67
2024/01/02 03:21:38;;;;;;;0.30;0.30;;;4.40;99.90;;;;;;2042458;28;20273;-67
2024/01/02 03:22:39;;;;;;;0.20;0.20;;;4.40;99.90;;;;;;2043960;28;20323;-67
2024/01/02 03:23:39;;;;;;;0.20;0.20;;;4.40;99.90;;;;;;2046882;28;20960;-66
2024/01/02 03:24:41;;;;;;;0.30;0.30;;;4.50;99.90;;;;;;2046335;28;20330;-67
2024/01/02 03:25:42;;;;;;;0.40;0.40;;;4.50;99.90;;;;;;2046618;28;20231;-66
2024/01/02 03:26:43;;;;;;;0.30;0.30;;;4.50;99.90;;;;;;2045043;28;20628;-66
2024/01/02 03:27:44;;;;;;;0.30;0.30;;;4.50;99.90;;;;;;2046181;28;20235;-66
2024/01/02 03:28:44;;;;;;;0.30;0.30;;;4.50;99.90;;;;;;2037759;29;20271;-66
2024/01/02 03:29:45;;;;;;;0.43;0.30;;;4.50;99.90;;;;;;2037125;29;20227;-67
2024/01/02 03:30:46;;;;;;;0.30;0.30;;;4.50;99.90;;;;;;2044791;28;20235;-67
2024/01/02 03:31:47;;;;;;;0.30;0.30;;;4.50;99.90;;;;;;2036686;28;20251;-67
2024/01/02 03:32:47;;;;;;;0.30;0.30;;;4.50;99.90;;;;;;2036854;28;20234;-67
2024/01/02 03:33:48;;;;;;;0.30;0.30;;;4.50;99.90;;;;;;2025904;29;20333;-66
2024/01/02 03:34:50;;;;;;;0.20;0.20;;;4.60;99.90;;;;;;2036477;28;20984;-66
2024/01/02 03:35:51;;;;;;;0.20;0.20;;;4.60;99.90;;;;;;2044925;28;20227;-67
2024/01/02 03:36:52;;;;;;;0.30;0.30;;;4.60;99.90;;;;;;2044398;28;20267;-66
2024/01/02 03:37:54;;;;;;;0.93;0.30;;;4.70;99.90;;;;;;2043812;28;20703;-66
2024/01/02 03:38:55;;;;;;;1.05;0.40;;;4.80;99.90;;;;;;2045360;28;20234;-66
2024/01/02 03:39:55;;;;;;;0.30;0.30;;;4.70;99.90;;;;;;2044617;28;20310;-67
2024/01/02 03:40:56;;;;;;;0.20;0.20;;;4.70;99.90;;;;;;2043311;28;20223;-67
2024/01/02 03:41:57;;;;;;;0.47;0.30;;;4.80;99.90;;;;;;2035959;28;20253;-66
2024/01/02 03:42:58;;;;;;;0.37;0.37;;;4.70;99.90;;;;;;2042338;28;20235;-67
2024/01/02 03:43:59;;;;;;;0.30;0.30;;;4.70;99.90;;;;;;2034354;28;20261;-67
2024/01/02 03:44:59;;;;;;;0.20;0.20;;;4.70;99.90;;;;;;2027154;29;20300;-67
2024/01/02 03:46:00;;;;;;;0.23;0.23;;;4.80;99.90;;;;;;2042314;28;20234;-66
2024/01/02 03:47:01;;;;;;;0.20;0.20;;;4.70;99.90;;;;;;2042889;28;20244;-66
2024/01/02 03:48:01;;;;;;;0.30;0.30;;;4.80;99.90;;;;;;2046692;28;20263;-66
2024/01/02 03:49:02;;;;;;;0.30;0.30;;;4.80;99.90;;;;;;2046891;28;20200;-66
2024/01/02 03:50:03;;;;;;;0.20;0.20;;;4.80;99.90;;;;;;2046428;28;20195;-67
2024/01/02 03:51:04;;;;;;;0.20;0.20;;;4.80;99.90;;;;;;2045329;28;20613;-67
2024/01/02 03:52:05;;;;;;;0.20;0.20;;;4.80;99.90;;;;;;2038021;28;20283;-67
2024/01/02 03:53:06;;;;;;;0.20;0.20;;;4.70;99.90;;;;;;2041641;28;20506;-67
2024/01/02 03:54:06;;;;;;;0.30;0.30;;;4.80;99.90;;;;;;2045387;28;20215;-66
2024/01/02 03:55:07;;;;;;;0.30;0.30;;;4.70;99.90;;;;;;2044643;28;20283;-67
2024/01/02 03:56:11;;;;;;;0.35;0.30;;;4.70;99.90;;;;;;2045707;28;20188;-67
2024/01/02 03:57:11;;;;;;;0.40;0.40;;;4.70;99.90;;;;;;2045414;28;20181;-68
2024/01/02 03:58:12;;;;;;;0.30;0.30;;;4.70;99.90;;;;;;2045384;28;20182;-67
2024/01/02 03:59:13;;;;;;;0.30;0.30;;;4.70;99.90;;;;;;2044572;28;20567;-66
2024/01/02 04:00:13;;;;;;;0.30;0.30;;;4.70;99.90;;;;;;2044554;28;20223;-66
2024/01/02 04:01:14;;;;;;;0.20;0.20;;;4.70;99.90;;;;;;2044248;28;20271;-67
2024/01/02 04:02:15;;;;;;;0.20;0.20;;;4.70;99.90;;;;;;2042006;29;20959;-67
2024/01/02 04:03:15;;;;;;;0.40;0.40;;;4.70;99.90;;;;;;2042399;29;20267;-67
2024/01/02 04:04:16;;;;;;;0.30;0.30;;;4.70;99.90;;;;;;2043974;28;20275;-67
2024/01/02 04:05:17;;;;;;;0.30;0.30;;;4.80;99.90;;;;;;2044215;28;20191;-67
2024/01/02 04:06:18;;;;;;;0.30;0.30;;;4.80;99.90;;;;;;2043971;28;20279;-67
2024/01/02 04:07:18;;;;;;;0.30;0.30;;;4.80;99.90;;;;;;2043008;28;20631;-67
2024/01/02 04:08:19;;;;;;;0.30;0.30;;;4.80;99.90;;;;;;2042797;29;20489;-67
2024/01/02 04:09:20;;;;;;;0.30;0.30;;;4.70;99.90;;;;;;2043396;28;20263;-67
2024/01/02 04:10:20;;;;;;;0.20;0.20;;;4.70;99.90;;;;;;2043326;28;20300;-67
2024/01/02 04:11:21;;;;;;;0.30;0.30;;;4.70;99.90;;;;;;2034476;29;20239;-67
2024/01/02 04:12:22;;;;;;;0.60;0.30;;;4.60;99.90;;;;;;2042361;29;20842;-68
2024/01/02 04:13:23;;;;;;;0.20;0.20;;;4.70;99.90;;;;;;2042741;28;21073;-68
2024/01/02 04:14:24;;;;;;;0.70;0.32;;;4.70;99.90;;;;;;2046658;28;20299;-67
2024/01/02 04:15:24;;;;;;;0.60;0.30;;;4.70;99.90;;;;;;2046959;28;20680;-67
2024/01/02 04:16:25;;;;;;;0.20;0.20;;;4.70;99.90;;;;;;2046090;28;20906;-67
2024/01/02 04:17:26;;;;;;;0.50;0.40;;;4.70;99.90;;;;;;2046164;28;20230;-67
2024/01/02 04:18:26;;;;;;;0.37;0.37;;;4.70;99.90;;;;;;2046176;28;20279;-67
2024/01/02 04:19:27;;;;;;;0.30;0.30;;;4.70;99.90;;;;;;2047631;28;20220;-67
2024/01/02 04:20:28;;;;;;;1.05;0.30;;;4.70;99.90;;;;;;2046224;28;20666;-67
2024/01/02 04:21:29;;;;;;;1.07;0.20;;;4.60;99.90;;;;;;2038004;29;20256;-67
2024/01/02 04:22:29;;;;;;;0.30;0.30;;;4.60;99.90;;;;;;2037988;28;20725;-67
2024/01/02 04:23:30;;;;;;;0.73;0.23;;;4.60;99.90;;;;;;2037957;29;20220;-67
2024/01/02 04:24:31;;;;;;;0.30;0.30;;;4.60;99.90;;;;;;2044481;28;20234;-67
2024/01/02 04:25:31;;;;;;;0.20;0.20;;;4.70;99.90;;;;;;2044719;28;20286;-67
2024/01/02 04:26:32;;;;;;;0.57;0.30;;;4.70;99.90;;;;;;2043876;28;20689;-67
2024/01/02 04:27:33;;;;;;;0.37;0.37;;;4.60;99.90;;;;;;2035666;29;20698;-67
2024/01/02 04:28:33;;;;;;;2.00;0.67;;;4.60;99.90;;;;;;2043094;28;20238;-67
2024/01/02 04:29:34;;;;;;;0.30;0.30;;;4.60;99.90;;;;;;2045169;28;20278;-68
2024/01/02 04:30:35;;;;;;;1.20;0.33;;;4.60;99.90;;;;;;2042925;28;20591;-68
2024/01/02 04:31:35;;;;;;;0.20;0.20;;;4.60;99.90;;;;;;2034560;29;20305;-68
2024/01/02 04:32:36;;;;;;;0.33;0.30;;;4.60;99.90;;;;;;2035753;29;20258;-67
2024/01/02 04:33:36;;;;;;;0.30;0.30;;;4.60;99.90;;;;;;2035126;29;20239;-68
2024/01/02 04:34:37;;;;;;;8.27;0.50;;;4.60;99.90;;;;;;2042850;28;20263;-67
2024/01/02 04:35:38;;;;;;;0.20;0.20;;;4.70;99.90;;;;;;2043142;28;20736;-67
2024/01/02 04:36:41;;;;;;;0.30;0.30;;;4.70;99.90;;;;;;2043160;28;20221;-67
2024/01/02 04:37:43;;;;;;;0.25;0.20;;;4.60;99.90;;;;;;2042572;28;20308;-67
2024/01/02 04:38:44;;;;;;;0.52;0.30;;;4.60;99.90;;;;;;2041956;28;20309;-67
2024/01/02 04:39:44;;;;;;;0.30;0.30;;;4.60;99.90;;;;;;2043542;28;20234;-67
2024/01/02 04:40:45;;;;;;;0.30;0.30;;;4.70;99.90;;;;;;2045517;28;20228;-67
2024/01/02 04:41:46;;;;;;;0.30;0.30;;;4.70;99.90;;;;;;2053481;28;20227;-67
2024/01/02 04:42:46;;;;;;;0.20;0.20;;;4.70;99.90;;;;;;2053504;28;20231;-67
2024/01/02 04:43:47;;;;;;;0.30;0.30;;;4.60;99.90;;;;;;2045759;28;20243;-67
2024/01/02 04:44:48;;;;;;;0.30;0.30;;;4.70;99.90;;;;;;2046024;28;20244;-67
2024/01/02 04:45:49;;;;;;;0.40;0.23;;;4.70;99.90;;;;;;2045612;28;20604;-67
2024/01/02 04:46:49;;;;;;;0.23;0.23;;;4.70;99.90;;;;;;2045954;28;20227;-67
2024/01/02 04:47:50;;;;;;;0.30;0.30;;;4.70;99.90;;;;;;2044916;28;20602;-67
2024/01/02 04:48:51;;;;;;;0.40;0.30;;;4.70;99.90;;;;;;2045106;28;20307;-67
2024/01/02 04:49:51;;;;;;;0.27;0.27;;;4.70;99.90;;;;;;2044854;28;20646;-67
2024/01/02 04:50:52;;;;;;;1.60;0.30;;;4.80;99.90;;;;;;2043943;28;20303;-67
2024/01/02 04:51:53;;;;;;;0.20;0.20;;;4.80;99.90;;;;;;2044473;28;20321;-66
2024/01/02 04:52:53;;;;;;;0.33;0.33;;;4.80;99.90;;;;;;2035411;29;20671;-67
2024/01/02 04:53:54;;;;;;;0.30;0.30;;;4.80;99.90;;;;;;2036055;29;20350;-67
2024/01/02 04:54:55;;;;;;;0.30;0.30;;;4.80;99.90;;;;;;2043325;28;20776;-68
2024/01/02 04:55:55;;;;;;;0.20;0.20;;;4.80;99.90;;;;;;2043498;28;20231;-67
2024/01/02 04:56:57;;;;;;;0.30;0.30;;;4.80;99.90;;;;;;2043967;28;20241;-67
2024/01/02 04:58:00;;;;;;;0.65;0.30;;;4.80;99.90;;;;;;2046247;28;20949;-67
2024/01/02 04:59:01;;;;;;;0.20;0.20;;;4.80;99.90;;;;;;2035340;28;20747;-67
2024/01/02 05:00:02;;;;;;;0.27;0.27;;;4.90;99.90;;;;;;2037559;28;20193;-67
2024/01/02 05:01:03;;;;;;;0.38;0.38;;;4.90;99.90;;;;;;2042465;28;20275;-67
2024/01/02 05:02:04;;;;;;;0.35;0.32;;;4.90;99.90;;;;;;2042930;28;20212;-67
2024/01/02 05:03:05;;;;;;;0.37;0.30;;;4.90;99.90;;;;;;2041722;28;20195;-67
2024/01/02 05:04:05;;;;;;;0.30;0.30;;;4.90;99.90;;;;;;2042249;28;20181;-67
2024/01/02 05:05:06;;;;;;;0.20;0.20;;;4.90;99.90;;;;;;2046137;28;20557;-67
2024/01/02 05:06:07;;;;;;;0.20;0.20;;;4.90;99.90;;;;;;2046256;28;20283;-67
2024/01/02 05:07:08;;;;;;;0.20;0.20;;;4.90;99.90;;;;;;2046439;28;20191;-68
2024/01/02 05:08:09;;;;;;;0.30;0.30;;;4.80;99.90;;;;;;2046142;28;20530;-67
2024/01/02 05:09:10;;;;;;;0.23;0.23;;;4.90;99.90;;;;;;2046455;28;20198;-67
2024/01/02 05:10:10;;;;;;;0.30;0.30;;;5.00;99.90;;;;;;2046636;28;20259;-67
2024/01/02 05:11:11;;;;;;;0.20;0.20;;;4.90;99.90;;;;;;2046736;28;20274;-67
2024/01/02 05:12:13;;;;;;;0.20;0.20;;;4.90;99.90;;;;;;2045553;28;20223;-67
2024/01/02 05:13:14;;;;;;;0.30;0.30;;;4.90;99.90;;;;;;2045673;28;20179;-67
2024/01/02 05:14:17;;;;;;;0.20;0.20;;;4.90;99.90;;;;;;2036563;29;20213;-67
2024/01/02 05:15:18;;;;;;;0.30;0.30;;;5.00;99.90;;;;;;2036921;29;20565;-67
2024/01/02 05:16:19;;;;;;;0.20;0.20;;;5.00;99.90;;;;;;2037759;29;20186;-67
2024/01/02 05:17:20;;;;;;;0.20;0.20;;;5.00;99.90;;;;;;2030987;29;20544;-67
2024/01/02 05:18:21;;;;;;;0.20;0.20;;;5.00;99.90;;;;;;2037498;29;20221;-67
2024/01/02 05:19:21;;;;;;;0.20;0.20;;;5.10;99.90;;;;;;2045298;28;20287;-67
2024/01/02 05:20:22;;;;;;;0.30;0.30;;;5.10;99.90;;;;;;2046173;28;20282;-67
2024/01/02 05:21:23;;;;;;;0.20;0.20;;;5.10;99.90;;;;;;2038404;29;20228;-67